sensor_id;sensor_type;location;lat;lon;timestamp;P1;durP1;ratioP1;P2;durP2;ratioP2
21626;SDS011;10975;47.872;12.972;2024-01-06T00:01:14;15.95;;;13.68;;
21626;SDS011;10975;47.872;12.972;2024-01-06T00:03:42;17.20;;;12.43;;
21626;SDS011;10975;47.872;12.972;2024-01-06T00:06:15;16.75;;;13.60;;
21626;SDS011;10975;47.872;12.972;2024-01-06T00:08:42;18.23;;;12.75;;
21626;SDS011;10975;47.872;12.972;2024-01-06T00:11:09;15.88;;;13.13;;
21626;SDS011;10975;47.872;12.972;2024-01-06T00:13:36;17.50;;;13.70;;
21626;SDS011;10975;47.872;12.972;2024-01-06T00:16:03;21.45;;;14.38;;
21626;SDS011;10975;47.872;12.972;2024-01-06T00:18:30;19.20;;;13.77;;
21626;SDS011;10975;47.872;12.972;2024-01-06T00:20:58;18.95;;;14.55;;
21626;SDS011;10975;47.872;12.972;2024-01-06T00:23:25;22.83;;;15.07;;
21626;SDS011;10975;47.872;12.972;2024-01-06T00:25:52;18.80;;;13.82;;
21626;SDS011;10975;47.872;12.972;2024-01-06T00:28:18;21.35;;;15.40;;
21626;SDS011;10975;47.872;12.972;2024-01-06T00:30:45;21.08;;;15.02;;
21626;SDS011;10975;47.872;12.972;2024-01-06T00:33:12;25.13;;;14.85;;
21626;SDS011;10975;47.872;12.972;2024-01-06T00:35:39;18.33;;;12.98;;
21626;SDS011;10975;47.872;12.972;2024-01-06T00:38:06;16.98;;;13.57;;
21626;SDS011;10975;47.872;12.972;2024-01-06T00:40:33;16.98;;;13.00;;
21626;SDS011;10975;47.872;12.972;2024-01-06T00:43:00;20.48;;;13.65;;
21626;SDS011;10975;47.872;12.972;2024-01-06T00:45:27;18.35;;;13.27;;
21626;SDS011;10975;47.872;12.972;2024-01-06T00:47:53;18.23;;;13.23;;
21626;SDS011;10975;47.872;12.972;2024-01-06T00:50:21;18.42;;;14.75;;
21626;SDS011;10975;47.872;12.972;2024-01-06T00:52:48;18.30;;;14.23;;
21626;SDS011;10975;47.872;12.972;2024-01-06T00:55:19;18.60;;;13.80;;
21626;SDS011;10975;47.872;12.972;2024-01-06T00:57:46;16.13;;;13.50;;
21626;SDS011;10975;47.872;12.972;2024-01-06T01:00:13;18.40;;;14.27;;
21626;SDS011;10975;47.872;12.972;2024-01-06T01:02:40;17.98;;;14.40;;
21626;SDS011;10975;47.872;12.972;2024-01-06T01:05:07;18.92;;;14.23;;
21626;SDS011;10975;47.872;12.972;2024-01-06T01:07:34;19.17;;;14.30;;
21626;SDS011;10975;47.872;12.972;2024-01-06T01:10:01;19.35;;;15.00;;
21626;SDS011;10975;47.872;12.972;2024-01-06T01:12:28;15.73;;;12.70;;
21626;SDS011;10975;47.872;12.972;2024-01-06T01:14:55;23.10;;;15.38;;
21626;SDS011;10975;47.872;12.972;2024-01-06T01:17:22;16.65;;;13.15;;
21626;SDS011;10975;47.872;12.972;2024-01-06T01:19:49;17.70;;;15.63;;
21626;SDS011;10975;47.872;12.972;2024-01-06T01:22:16;21.10;;;14.82;;
21626;SDS011;10975;47.872;12.972;2024-01-06T01:24:43;17.92;;;13.50;;
21626;SDS011;10975;47.872;12.972;2024-01-06T01:27:10;18.17;;;14.13;;
21626;SDS011;10975;47.872;12.972;2024-01-06T01:29:37;17.83;;;13.73;;
21626;SDS011;10975;47.872;12.972;2024-01-06T01:32:04;17.33;;;14.27;;
21626;SDS011;10975;47.872;12.972;2024-01-06T01:34:32;15.25;;;13.65;;
21626;SDS011;10975;47.872;12.972;2024-01-06T01:36:59;15.80;;;13.15;;
21626;SDS011;10975;47.872;12.972;2024-01-06T01:39:26;22.80;;;17.38;;
21626;SDS011;10975;47.872;12.972;2024-01-06T01:41:53;16.10;;;13.73;;
21626;SDS011;10975;47.872;12.972;2024-01-06T01:44:20;17.08;;;14.02;;
21626;SDS011;10975;47.872;12.972;2024-01-06T01:46:47;16.23;;;12.50;;
21626;SDS011;10975;47.872;12.972;2024-01-06T01:49:14;17.60;;;13.52;;
21626;SDS011;10975;47.872;12.972;2024-01-06T01:51:42;18.75;;;14.00;;
21626;SDS011;10975;47.872;12.972;2024-01-06T01:54:10;16.38;;;13.52;;
21626;SDS011;10975;47.872;12.972;2024-01-06T01:56:38;14.57;;;13.05;;
21626;SDS011;10975;47.872;12.972;2024-01-06T01:59:09;15.40;;;12.38;;
21626;SDS011;10975;47.872;12.972;2024-01-06T02:01:40;15.23;;;13.32;;
21626;SDS011;10975;47.872;12.972;2024-01-06T02:04:10;20.38;;;14.45;;
21626;SDS011;10975;47.872;12.972;2024-01-06T02:06:37;19.80;;;14.88;;
21626;SDS011;10975;47.872;12.972;2024-01-06T02:09:04;14.88;;;12.88;;
21626;SDS011;10975;47.872;12.972;2024-01-06T02:11:32;19.98;;;15.52;;
21626;SDS011;10975;47.872;12.972;2024-01-06T02:13:59;18.65;;;13.48;;
21626;SDS011;10975;47.872;12.972;2024-01-06T02:16:27;18.02;;;12.80;;
21626;SDS011;10975;47.872;12.972;2024-01-06T02:18:54;18.08;;;13.82;;
21626;SDS011;10975;47.872;12.972;2024-01-06T02:21:21;19.02;;;14.23;;
21626;SDS011;10975;47.872;12.972;2024-01-06T02:23:49;16.20;;;14.57;;
21626;SDS011;10975;47.872;12.972;2024-01-06T02:26:16;15.90;;;13.10;;
21626;SDS011;10975;47.872;12.972;2024-01-06T02:28:43;18.10;;;14.00;;
21626;SDS011;10975;47.872;12.972;2024-01-06T02:31:14;16.65;;;13.20;;
21626;SDS011;10975;47.872;12.972;2024-01-06T02:33:41;19.00;;;13.18;;
21626;SDS011;10975;47.872;12.972;2024-01-06T02:36:08;16.00;;;12.95;;
21626;SDS011;10975;47.872;12.972;2024-01-06T02:38:35;13.60;;;12.20;;
21626;SDS011;10975;47.872;12.972;2024-01-06T02:41:02;16.40;;;12.85;;
21626;SDS011;10975;47.872;12.972;2024-01-06T02:43:29;14.73;;;12.15;;
21626;SDS011;10975;47.872;12.972;2024-01-06T02:45:56;14.05;;;12.10;;
21626;SDS011;10975;47.872;12.972;2024-01-06T02:48:23;14.15;;;11.98;;
21626;SDS011;10975;47.872;12.972;2024-01-06T02:50:50;15.13;;;12.68;;
21626;SDS011;10975;47.872;12.972;2024-01-06T02:53:17;17.70;;;11.80;;
21626;SDS011;10975;47.872;12.972;2024-01-06T02:55:43;14.55;;;11.98;;
21626;SDS011;10975;47.872;12.972;2024-01-06T02:58:10;16.17;;;12.90;;
21626;SDS011;10975;47.872;12.972;2024-01-06T03:00:37;15.85;;;12.45;;
21626;SDS011;10975;47.872;12.972;2024-01-06T03:03:04;12.77;;;11.23;;
21626;SDS011;10975;47.872;12.972;2024-01-06T03:05:31;14.77;;;11.73;;
21626;SDS011;10975;47.872;12.972;2024-01-06T03:07:58;16.45;;;12.38;;
21626;SDS011;10975;47.872;12.972;2024-01-06T03:10:26;15.85;;;11.90;;
21626;SDS011;10975;47.872;12.972;2024-01-06T03:12:52;13.13;;;11.48;;
21626;SDS011;10975;47.872;12.972;2024-01-06T03:15:20;15.65;;;13.27;;
21626;SDS011;10975;47.872;12.972;2024-01-06T03:17:47;15.13;;;11.93;;
21626;SDS011;10975;47.872;12.972;2024-01-06T03:20:14;13.95;;;11.38;;
21626;SDS011;10975;47.872;12.972;2024-01-06T03:22:41;14.30;;;11.40;;
21626;SDS011;10975;47.872;12.972;2024-01-06T03:25:08;13.32;;;11.90;;
21626;SDS011;10975;47.872;12.972;2024-01-06T03:27:35;15.98;;;11.30;;
21626;SDS011;10975;47.872;12.972;2024-01-06T03:30:02;14.82;;;12.32;;
21626;SDS011;10975;47.872;12.972;2024-01-06T03:32:30;16.17;;;13.68;;
21626;SDS011;10975;47.872;12.972;2024-01-06T03:34:57;19.13;;;12.63;;
21626;SDS011;10975;47.872;12.972;2024-01-06T03:37:24;20.48;;;14.70;;
21626;SDS011;10975;47.872;12.972;2024-01-06T03:39:51;15.73;;;12.70;;
21626;SDS011;10975;47.872;12.972;2024-01-06T03:42:18;13.88;;;12.27;;
21626;SDS011;10975;47.872;12.972;2024-01-06T03:44:45;13.90;;;12.43;;
21626;SDS011;10975;47.872;12.972;2024-01-06T03:47:12;17.33;;;12.98;;
21626;SDS011;10975;47.872;12.972;2024-01-06T03:49:39;18.20;;;13.52;;
21626;SDS011;10975;47.872;12.972;2024-01-06T03:52:06;13.10;;;11.68;;
21626;SDS011;10975;47.872;12.972;2024-01-06T03:54:32;13.88;;;11.70;;
21626;SDS011;10975;47.872;12.972;2024-01-06T03:56:59;16.05;;;11.77;;
21626;SDS011;10975;47.872;12.972;2024-01-06T03:59:26;15.25;;;12.70;;
21626;SDS011;10975;47.872;12.972;2024-01-06T04:01:53;16.48;;;13.43;;
21626;SDS011;10975;47.872;12.972;2024-01-06T04:04:20;16.55;;;12.70;;
21626;SDS011;10975;47.872;12.972;2024-01-06T04:06:47;15.90;;;11.50;;
21626;SDS011;10975;47.872;12.972;2024-01-06T04:09:14;15.38;;;11.98;;
21626;SDS011;10975;47.872;12.972;2024-01-06T04:11:44;16.33;;;11.63;;
21626;SDS011;10975;47.872;12.972;2024-01-06T04:14:11;15.30;;;12.35;;
21626;SDS011;10975;47.872;12.972;2024-01-06T04:16:37;17.73;;;12.68;;
21626;SDS011;10975;47.872;12.972;2024-01-06T04:19:04;16.73;;;12.88;;
21626;SDS011;10975;47.872;12.972;2024-01-06T04:21:34;17.38;;;13.80;;
21626;SDS011;10975;47.872;12.972;2024-01-06T04:24:00;15.98;;;13.73;;
21626;SDS011;10975;47.872;12.972;2024-01-06T04:26:27;15.70;;;12.68;;
21626;SDS011;10975;47.872;12.972;2024-01-06T04:28:54;13.68;;;12.27;;
21626;SDS011;10975;47.872;12.972;2024-01-06T04:31:21;16.65;;;12.77;;
21626;SDS011;10975;47.872;12.972;2024-01-06T04:33:48;17.52;;;12.38;;
21626;SDS011;10975;47.872;12.972;2024-01-06T04:36:15;16.98;;;13.23;;
21626;SDS011;10975;47.872;12.972;2024-01-06T04:38:42;14.50;;;12.00;;
21626;SDS011;10975;47.872;12.972;2024-01-06T04:41:09;19.20;;;15.43;;
21626;SDS011;10975;47.872;12.972;2024-01-06T04:43:35;16.92;;;14.25;;
21626;SDS011;10975;47.872;12.972;2024-01-06T04:46:02;15.05;;;13.45;;
21626;SDS011;10975;47.872;12.972;2024-01-06T04:48:29;15.95;;;12.70;;
21626;SDS011;10975;47.872;12.972;2024-01-06T04:50:56;16.73;;;13.07;;
21626;SDS011;10975;47.872;12.972;2024-01-06T04:53:23;13.27;;;11.85;;
21626;SDS011;10975;47.872;12.972;2024-01-06T04:55:50;14.88;;;13.20;;
21626;SDS011;10975;47.872;12.972;2024-01-06T04:58:16;18.38;;;12.25;;
21626;SDS011;10975;47.872;12.972;2024-01-06T05:00:43;13.43;;;12.00;;
21626;SDS011;10975;47.872;12.972;2024-01-06T05:03:10;15.43;;;11.98;;
21626;SDS011;10975;47.872;12.972;2024-01-06T05:05:37;13.73;;;12.43;;
21626;SDS011;10975;47.872;12.972;2024-01-06T05:08:04;15.63;;;13.05;;
21626;SDS011;10975;47.872;12.972;2024-01-06T05:10:31;14.77;;;11.90;;
21626;SDS011;10975;47.872;12.972;2024-01-06T05:12:58;16.23;;;13.50;;
21626;SDS011;10975;47.872;12.972;2024-01-06T05:15:25;17.73;;;12.55;;
21626;SDS011;10975;47.872;12.972;2024-01-06T05:17:52;16.95;;;12.48;;
21626;SDS011;10975;47.872;12.972;2024-01-06T05:20:19;16.70;;;13.52;;
21626;SDS011;10975;47.872;12.972;2024-01-06T05:22:45;17.27;;;14.25;;
21626;SDS011;10975;47.872;12.972;2024-01-06T05:25:12;16.33;;;13.27;;
21626;SDS011;10975;47.872;12.972;2024-01-06T05:27:39;16.00;;;12.57;;
21626;SDS011;10975;47.872;12.972;2024-01-06T05:30:06;14.98;;;12.88;;
21626;SDS011;10975;47.872;12.972;2024-01-06T05:32:34;14.73;;;11.90;;
21626;SDS011;10975;47.872;12.972;2024-01-06T05:35:03;18.23;;;14.18;;
21626;SDS011;10975;47.872;12.972;2024-01-06T05:37:31;17.98;;;13.48;;
21626;SDS011;10975;47.872;12.972;2024-01-06T05:39:58;12.88;;;11.25;;
21626;SDS011;10975;47.872;12.972;2024-01-06T05:42:28;13.32;;;11.95;;
21626;SDS011;10975;47.872;12.972;2024-01-06T05:44:54;16.45;;;12.88;;
21626;SDS011;10975;47.872;12.972;2024-01-06T05:47:21;15.48;;;13.88;;
21626;SDS011;10975;47.872;12.972;2024-01-06T05:49:48;19.65;;;13.45;;
21626;SDS011;10975;47.872;12.972;2024-01-06T05:52:15;16.50;;;13.27;;
21626;SDS011;10975;47.872;12.972;2024-01-06T05:54:42;16.23;;;14.63;;
21626;SDS011;10975;47.872;12.972;2024-01-06T05:57:09;13.88;;;12.50;;
21626;SDS011;10975;47.872;12.972;2024-01-06T05:59:36;14.48;;;11.98;;
21626;SDS011;10975;47.872;12.972;2024-01-06T06:02:03;13.77;;;12.40;;
21626;SDS011;10975;47.872;12.972;2024-01-06T06:04:30;14.20;;;12.25;;
21626;SDS011;10975;47.872;12.972;2024-01-06T06:06:57;13.77;;;11.63;;
21626;SDS011;10975;47.872;12.972;2024-01-06T06:09:27;14.43;;;12.65;;
21626;SDS011;10975;47.872;12.972;2024-01-06T06:11:55;14.63;;;13.13;;
21626;SDS011;10975;47.872;12.972;2024-01-06T06:14:22;16.58;;;13.55;;
21626;SDS011;10975;47.872;12.972;2024-01-06T06:16:52;15.02;;;12.52;;
21626;SDS011;10975;47.872;12.972;2024-01-06T06:19:19;16.70;;;13.68;;
21626;SDS011;10975;47.872;12.972;2024-01-06T06:21:47;16.77;;;14.45;;
21626;SDS011;10975;47.872;12.972;2024-01-06T06:24:14;18.52;;;13.98;;
21626;SDS011;10975;47.872;12.972;2024-01-06T06:26:40;12.57;;;11.40;;
21626;SDS011;10975;47.872;12.972;2024-01-06T06:29:07;14.73;;;12.50;;
21626;SDS011;10975;47.872;12.972;2024-01-06T06:31:34;14.57;;;13.10;;
21626;SDS011;10975;47.872;12.972;2024-01-06T06:34:01;18.35;;;14.00;;
21626;SDS011;10975;47.872;12.972;2024-01-06T06:36:34;14.32;;;12.25;;
21626;SDS011;10975;47.872;12.972;2024-01-06T06:39:01;15.07;;;12.52;;
21626;SDS011;10975;47.872;12.972;2024-01-06T06:41:28;15.15;;;13.55;;
21626;SDS011;10975;47.872;12.972;2024-01-06T06:43:54;21.10;;;15.98;;
21626;SDS011;10975;47.872;12.972;2024-01-06T06:46:21;14.77;;;13.18;;
21626;SDS011;10975;47.872;12.972;2024-01-06T06:48:48;12.55;;;10.85;;
21626;SDS011;10975;47.872;12.972;2024-01-06T06:51:16;14.40;;;11.80;;
21626;SDS011;10975;47.872;12.972;2024-01-06T06:53:43;13.98;;;12.45;;
21626;SDS011;10975;47.872;12.972;2024-01-06T06:56:12;13.00;;;11.32;;
21626;SDS011;10975;47.872;12.972;2024-01-06T06:58:40;16.52;;;12.30;;
21626;SDS011;10975;47.872;12.972;2024-01-06T07:01:07;13.95;;;11.80;;
21626;SDS011;10975;47.872;12.972;2024-01-06T07:03:34;13.02;;;11.65;;
21626;SDS011;10975;47.872;12.972;2024-01-06T07:06:01;13.30;;;11.45;;
21626;SDS011;10975;47.872;12.972;2024-01-06T07:08:28;13.13;;;11.07;;
21626;SDS011;10975;47.872;12.972;2024-01-06T07:10:55;21.98;;;14.65;;
21626;SDS011;10975;47.872;12.972;2024-01-06T07:13:22;18.80;;;13.95;;
21626;SDS011;10975;47.872;12.972;2024-01-06T07:15:49;21.30;;;14.45;;
21626;SDS011;10975;47.872;12.972;2024-01-06T07:18:17;13.82;;;12.43;;
21626;SDS011;10975;47.872;12.972;2024-01-06T07:20:49;19.27;;;12.65;;
21626;SDS011;10975;47.872;12.972;2024-01-06T07:23:16;14.82;;;12.70;;
21626;SDS011;10975;47.872;12.972;2024-01-06T07:25:43;14.05;;;11.68;;
21626;SDS011;10975;47.872;12.972;2024-01-06T07:28:09;15.77;;;12.93;;
21626;SDS011;10975;47.872;12.972;2024-01-06T07:30:37;13.32;;;11.93;;
21626;SDS011;10975;47.872;12.972;2024-01-06T07:33:04;14.15;;;11.40;;
21626;SDS011;10975;47.872;12.972;2024-01-06T07:35:31;14.25;;;12.00;;
21626;SDS011;10975;47.872;12.972;2024-01-06T07:37:57;13.38;;;12.05;;
21626;SDS011;10975;47.872;12.972;2024-01-06T07:40:25;13.88;;;11.35;;
21626;SDS011;10975;47.872;12.972;2024-01-06T07:42:52;13.45;;;12.05;;
21626;SDS011;10975;47.872;12.972;2024-01-06T07:45:18;14.48;;;11.70;;
21626;SDS011;10975;47.872;12.972;2024-01-06T07:47:45;11.07;;;9.98;;
21626;SDS011;10975;47.872;12.972;2024-01-06T07:50:12;16.13;;;11.85;;
21626;SDS011;10975;47.872;12.972;2024-01-06T07:52:39;14.70;;;13.20;;
21626;SDS011;10975;47.872;12.972;2024-01-06T07:55:06;14.77;;;12.45;;
21626;SDS011;10975;47.872;12.972;2024-01-06T07:57:34;13.77;;;10.80;;
21626;SDS011;10975;47.872;12.972;2024-01-06T08:00:01;14.25;;;11.48;;
21626;SDS011;10975;47.872;12.972;2024-01-06T08:02:31;12.77;;;10.95;;
21626;SDS011;10975;47.872;12.972;2024-01-06T08:04:58;11.88;;;10.63;;
21626;SDS011;10975;47.872;12.972;2024-01-06T08:07:25;15.10;;;11.52;;
21626;SDS011;10975;47.872;12.972;2024-01-06T08:09:51;11.88;;;9.80;;
21626;SDS011;10975;47.872;12.972;2024-01-06T08:12:18;10.50;;;9.27;;
21626;SDS011;10975;47.872;12.972;2024-01-06T08:14:45;12.60;;;11.32;;
21626;SDS011;10975;47.872;12.972;2024-01-06T08:17:12;11.55;;;10.43;;
21626;SDS011;10975;47.872;12.972;2024-01-06T08:19:42;81.93;;;39.28;;
21626;SDS011;10975;47.872;12.972;2024-01-06T08:22:09;12.55;;;11.10;;
21626;SDS011;10975;47.872;12.972;2024-01-06T08:24:36;11.10;;;9.95;;
21626;SDS011;10975;47.872;12.972;2024-01-06T08:27:03;10.18;;;9.13;;
21626;SDS011;10975;47.872;12.972;2024-01-06T08:29:31;11.30;;;10.18;;
21626;SDS011;10975;47.872;12.972;2024-01-06T08:31:58;9.95;;;8.95;;
21626;SDS011;10975;47.872;12.972;2024-01-06T08:34:25;14.18;;;12.63;;
21626;SDS011;10975;47.872;12.972;2024-01-06T08:36:56;14.40;;;10.95;;
21626;SDS011;10975;47.872;12.972;2024-01-06T08:39:23;11.45;;;10.35;;
21626;SDS011;10975;47.872;12.972;2024-01-06T08:41:51;9.77;;;8.85;;
21626;SDS011;10975;47.872;12.972;2024-01-06T08:44:17;8.70;;;7.90;;
21626;SDS011;10975;47.872;12.972;2024-01-06T08:46:44;6.55;;;6.03;;
21626;SDS011;10975;47.872;12.972;2024-01-06T08:49:11;6.68;;;5.18;;
21626;SDS011;10975;47.872;12.972;2024-01-06T08:51:38;6.43;;;5.82;;
21626;SDS011;10975;47.872;12.972;2024-01-06T08:54:05;6.47;;;5.88;;
21626;SDS011;10975;47.872;12.972;2024-01-06T08:56:32;5.78;;;5.30;;
21626;SDS011;10975;47.872;12.972;2024-01-06T08:59:00;6.45;;;5.25;;
21626;SDS011;10975;47.872;12.972;2024-01-06T09:01:27;4.15;;;3.75;;
21626;SDS011;10975;47.872;12.972;2024-01-06T09:03:54;4.63;;;4.22;;
21626;SDS011;10975;47.872;12.972;2024-01-06T09:06:21;5.55;;;4.97;;
21626;SDS011;10975;47.872;12.972;2024-01-06T09:08:48;6.05;;;5.55;;
21626;SDS011;10975;47.872;12.972;2024-01-06T09:11:15;6.30;;;5.70;;
21626;SDS011;10975;47.872;12.972;2024-01-06T09:13:42;5.45;;;4.93;;
21626;SDS011;10975;47.872;12.972;2024-01-06T09:16:09;5.47;;;4.97;;
21626;SDS011;10975;47.872;12.972;2024-01-06T09:18:36;6.05;;;5.47;;
21626;SDS011;10975;47.872;12.972;2024-01-06T09:21:03;4.88;;;4.47;;
21626;SDS011;10975;47.872;12.972;2024-01-06T09:23:30;4.68;;;3.90;;
21626;SDS011;10975;47.872;12.972;2024-01-06T09:25:58;6.00;;;4.90;;
21626;SDS011;10975;47.872;12.972;2024-01-06T09:28:25;4.07;;;3.72;;
21626;SDS011;10975;47.872;12.972;2024-01-06T09:30:51;4.10;;;3.33;;
21626;SDS011;10975;47.872;12.972;2024-01-06T09:33:22;2.60;;;2.40;;
21626;SDS011;10975;47.872;12.972;2024-01-06T09:35:49;2.67;;;2.47;;
21626;SDS011;10975;47.872;12.972;2024-01-06T09:38:17;4.10;;;3.20;;
21626;SDS011;10975;47.872;12.972;2024-01-06T09:40:44;2.55;;;2.35;;
21626;SDS011;10975;47.872;12.972;2024-01-06T09:43:12;3.70;;;2.97;;
21626;SDS011;10975;47.872;12.972;2024-01-06T09:45:39;3.15;;;2.88;;
21626;SDS011;10975;47.872;12.972;2024-01-06T09:48:13;5.47;;;4.40;;
21626;SDS011;10975;47.872;12.972;2024-01-06T09:50:41;4.30;;;3.80;;
21626;SDS011;10975;47.872;12.972;2024-01-06T09:53:10;2.92;;;2.65;;
21626;SDS011;10975;47.872;12.972;2024-01-06T09:55:37;3.40;;;3.10;;
21626;SDS011;10975;47.872;12.972;2024-01-06T09:58:05;3.85;;;3.20;;
21626;SDS011;10975;47.872;12.972;2024-01-06T10:00:35;2.65;;;2.45;;
21626;SDS011;10975;47.872;12.972;2024-01-06T10:03:02;3.60;;;2.92;;
21626;SDS011;10975;47.872;12.972;2024-01-06T10:05:29;3.00;;;2.80;;
21626;SDS011;10975;47.872;12.972;2024-01-06T10:07:57;2.83;;;2.63;;
21626;SDS011;10975;47.872;12.972;2024-01-06T10:10:25;2.45;;;2.25;;
21626;SDS011;10975;47.872;12.972;2024-01-06T10:12:53;2.67;;;2.33;;
21626;SDS011;10975;47.872;12.972;2024-01-06T10:15:21;2.92;;;2.63;;
21626;SDS011;10975;47.872;12.972;2024-01-06T10:17:48;2.40;;;2.20;;
21626;SDS011;10975;47.872;12.972;2024-01-06T10:20:16;2.28;;;2.08;;
21626;SDS011;10975;47.872;12.972;2024-01-06T10:22:44;1.55;;;1.45;;
21626;SDS011;10975;47.872;12.972;2024-01-06T10:25:11;2.03;;;1.92;;
21626;SDS011;10975;47.872;12.972;2024-01-06T10:27:39;2.10;;;1.90;;
21626;SDS011;10975;47.872;12.972;2024-01-06T10:30:07;1.88;;;1.77;;
21626;SDS011;10975;47.872;12.972;2024-01-06T10:32:36;3.08;;;2.20;;
21626;SDS011;10975;47.872;12.972;2024-01-06T10:35:03;2.40;;;2.20;;
21626;SDS011;10975;47.872;12.972;2024-01-06T10:37:33;2.47;;;2.30;;
21626;SDS011;10975;47.872;12.972;2024-01-06T10:40:12;2.40;;;2.20;;
21626;SDS011;10975;47.872;12.972;2024-01-06T10:42:43;2.08;;;1.98;;
21626;SDS011;10975;47.872;12.972;2024-01-06T10:45:14;2.63;;;2.40;;
21626;SDS011;10975;47.872;12.972;2024-01-06T10:47:42;2.17;;;2.00;;
21626;SDS011;10975;47.872;12.972;2024-01-06T10:50:10;2.80;;;2.60;;
21626;SDS011;10975;47.872;12.972;2024-01-06T10:52:39;2.00;;;1.90;;
21626;SDS011;10975;47.872;12.972;2024-01-06T10:55:08;3.17;;;2.90;;
21626;SDS011;10975;47.872;12.972;2024-01-06T10:57:36;3.17;;;2.88;;
21626;SDS011;10975;47.872;12.972;2024-01-06T11:00:04;2.45;;;2.22;;
21626;SDS011;10975;47.872;12.972;2024-01-06T11:02:32;3.33;;;2.92;;
21626;SDS011;10975;47.872;12.972;2024-01-06T11:05:00;2.35;;;2.15;;
21626;SDS011;10975;47.872;12.972;2024-01-06T11:07:27;2.50;;;2.30;;
21626;SDS011;10975;47.872;12.972;2024-01-06T11:12:29;1.70;;;1.60;;
21626;SDS011;10975;47.872;12.972;2024-01-06T11:14:56;1.95;;;1.70;;
21626;SDS011;10975;47.872;12.972;2024-01-06T11:20:22;2.30;;;1.92;;
21626;SDS011;10975;47.872;12.972;2024-01-06T11:22:50;1.60;;;1.30;;
21626;SDS011;10975;47.872;12.972;2024-01-06T11:25:18;2.30;;;1.80;;
21626;SDS011;10975;47.872;12.972;2024-01-06T11:27:49;2.65;;;2.08;;
21626;SDS011;10975;47.872;12.972;2024-01-06T11:32:47;1.50;;;1.40;;
21626;SDS011;10975;47.872;12.972;2024-01-06T11:35:15;1.40;;;1.30;;
21626;SDS011;10975;47.872;12.972;2024-01-06T11:42:43;1.63;;;1.52;;
21626;SDS011;10975;47.872;12.972;2024-01-06T11:45:12;1.70;;;1.60;;
21626;SDS011;10975;47.872;12.972;2024-01-06T11:47:39;1.40;;;1.30;;
21626;SDS011;10975;47.872;12.972;2024-01-06T11:50:13;1.25;;;1.15;;
21626;SDS011;10975;47.872;12.972;2024-01-06T11:52:40;1.70;;;1.60;;
21626;SDS011;10975;47.872;12.972;2024-01-06T11:55:07;1.50;;;1.40;;
21626;SDS011;10975;47.872;12.972;2024-01-06T11:57:36;1.33;;;1.23;;
21626;SDS011;10975;47.872;12.972;2024-01-06T12:00:03;1.40;;;1.25;;
21626;SDS011;10975;47.872;12.972;2024-01-06T12:02:31;1.30;;;1.20;;
21626;SDS011;10975;47.872;12.972;2024-01-06T12:04:57;1.00;;;1.00;;
21626;SDS011;10975;47.872;12.972;2024-01-06T12:07:25;1.40;;;1.30;;
21626;SDS011;10975;47.872;12.972;2024-01-06T12:10:02;0.77;;;0.77;;
21626;SDS011;10975;47.872;12.972;2024-01-06T12:12:29;1.40;;;1.30;;
21626;SDS011;10975;47.872;12.972;2024-01-06T12:14:56;0.82;;;0.82;;
21626;SDS011;10975;47.872;12.972;2024-01-06T12:17:23;1.45;;;1.35;;
21626;SDS011;10975;47.872;12.972;2024-01-06T12:19:55;1.70;;;1.60;;
21626;SDS011;10975;47.872;12.972;2024-01-06T12:22:22;1.55;;;1.45;;
21626;SDS011;10975;47.872;12.972;2024-01-06T12:24:49;1.50;;;1.40;;
21626;SDS011;10975;47.872;12.972;2024-01-06T12:27:17;2.25;;;1.88;;
21626;SDS011;10975;47.872;12.972;2024-01-06T12:29:44;2.13;;;1.90;;
21626;SDS011;10975;47.872;12.972;2024-01-06T12:32:11;3.05;;;2.58;;
21626;SDS011;10975;47.872;12.972;2024-01-06T12:34:40;5.55;;;4.40;;
21626;SDS011;10975;47.872;12.972;2024-01-06T12:37:07;3.17;;;2.88;;
21626;SDS011;10975;47.872;12.972;2024-01-06T12:39:34;3.15;;;2.63;;
21626;SDS011;10975;47.872;12.972;2024-01-06T12:42:01;2.22;;;1.80;;
21626;SDS011;10975;47.872;12.972;2024-01-06T12:44:28;1.67;;;1.55;;
21626;SDS011;10975;47.872;12.972;2024-01-06T12:46:55;1.52;;;1.42;;
21626;SDS011;10975;47.872;12.972;2024-01-06T12:49:22;1.80;;;1.70;;
21626;SDS011;10975;47.872;12.972;2024-01-06T12:51:49;2.17;;;1.98;;
21626;SDS011;10975;47.872;12.972;2024-01-06T12:54:16;1.60;;;1.50;;
21626;SDS011;10975;47.872;12.972;2024-01-06T12:56:43;1.42;;;1.33;;
21626;SDS011;10975;47.872;12.972;2024-01-06T12:59:10;2.10;;;1.90;;
21626;SDS011;10975;47.872;12.972;2024-01-06T13:01:37;3.13;;;2.83;;
21626;SDS011;10975;47.872;12.972;2024-01-06T13:04:05;2.40;;;2.20;;
21626;SDS011;10975;47.872;12.972;2024-01-06T13:06:32;1.83;;;1.50;;
21626;SDS011;10975;47.872;12.972;2024-01-06T13:09:00;1.88;;;1.60;;
21626;SDS011;10975;47.872;12.972;2024-01-06T13:11:33;1.95;;;1.33;;
21626;SDS011;10975;47.872;12.972;2024-01-06T13:14:01;1.98;;;1.52;;
21626;SDS011;10975;47.872;12.972;2024-01-06T13:16:28;2.78;;;2.30;;
21626;SDS011;10975;47.872;12.972;2024-01-06T13:18:55;2.45;;;1.95;;
21626;SDS011;10975;47.872;12.972;2024-01-06T13:21:22;2.22;;;1.95;;
21626;SDS011;10975;47.872;12.972;2024-01-06T13:23:50;2.28;;;1.73;;
21626;SDS011;10975;47.872;12.972;2024-01-06T13:26:17;2.30;;;2.10;;
21626;SDS011;10975;47.872;12.972;2024-01-06T13:28:44;2.20;;;1.73;;
21626;SDS011;10975;47.872;12.972;2024-01-06T13:31:12;2.55;;;2.33;;
21626;SDS011;10975;47.872;12.972;2024-01-06T13:33:39;2.55;;;2.20;;
21626;SDS011;10975;47.872;12.972;2024-01-06T13:36:06;2.63;;;1.88;;
21626;SDS011;10975;47.872;12.972;2024-01-06T13:38:33;2.22;;;2.05;;
21626;SDS011;10975;47.872;12.972;2024-01-06T13:41:00;3.17;;;2.58;;
21626;SDS011;10975;47.872;12.972;2024-01-06T13:43:27;2.42;;;2.22;;
21626;SDS011;10975;47.872;12.972;2024-01-06T13:45:53;2.05;;;1.95;;
21626;SDS011;10975;47.872;12.972;2024-01-06T13:48:21;2.83;;;2.60;;
21626;SDS011;10975;47.872;12.972;2024-01-06T13:50:48;2.63;;;2.42;;
21626;SDS011;10975;47.872;12.972;2024-01-06T13:53:16;3.72;;;3.00;;
21626;SDS011;10975;47.872;12.972;2024-01-06T13:55:43;2.78;;;2.58;;
21626;SDS011;10975;47.872;12.972;2024-01-06T13:58:10;2.95;;;2.63;;
21626;SDS011;10975;47.872;12.972;2024-01-06T14:00:37;2.38;;;2.17;;
21626;SDS011;10975;47.872;12.972;2024-01-06T14:03:05;2.42;;;2.22;;
21626;SDS011;10975;47.872;12.972;2024-01-06T14:05:33;3.17;;;2.67;;
21626;SDS011;10975;47.872;12.972;2024-01-06T14:08:01;2.63;;;2.38;;
21626;SDS011;10975;47.872;12.972;2024-01-06T14:10:28;2.50;;;2.17;;
21626;SDS011;10975;47.872;12.972;2024-01-06T14:12:57;1.27;;;1.17;;
21626;SDS011;10975;47.872;12.972;2024-01-06T14:15:24;2.20;;;1.95;;
21626;SDS011;10975;47.872;12.972;2024-01-06T14:17:52;2.40;;;2.20;;
21626;SDS011;10975;47.872;12.972;2024-01-06T14:20:19;3.33;;;3.03;;
21626;SDS011;10975;47.872;12.972;2024-01-06T14:22:47;2.53;;;2.33;;
21626;SDS011;10975;47.872;12.972;2024-01-06T14:25:15;1.90;;;1.80;;
21626;SDS011;10975;47.872;12.972;2024-01-06T14:27:45;2.38;;;2.13;;
21626;SDS011;10975;47.872;12.972;2024-01-06T14:30:12;2.17;;;1.98;;
21626;SDS011;10975;47.872;12.972;2024-01-06T14:32:40;2.20;;;2.00;;